Cricket, North Carolina
Current Conditions -  °F | °C
As of 10:35 PM on Sunday 23 Nov 2014 (Local Time) from KUKF Reporting Station
Overcast Overcast  
Wind Chill: 46°   Ceiling: 600
Heat Index: 46°   Visibility: 10mi
Dew Point: 46°   Wind: 3mph
Humidity: 100%   Direction: 310°NW
Pressure: 29.78"   Gusts: NA
Location:  36.1997°N, 81.0764°W
Report Text: KUKF 240335Z AUTO 31003KT 10SM OVC006 08/08 A2978 RMK AO2 LTG DSNT N NE AND S P0001
Loading
Personal Weather Stations






























Interactive Weather Map New forecast layout! Learn more

10-Day Weather Forecast

Advertisements
Track Severe Weather on mobile